sensor_id;sensor_type;location;lat;lon;timestamp;temperature;humidity
37052;DHT22;22964;52.272;13.356;2023-09-12T00:02:07;22.10;49.50
37052;DHT22;22964;52.272;13.356;2023-09-12T00:04:32;22.10;49.60
37052;DHT22;22964;52.272;13.356;2023-09-12T00:06:58;22.00;49.60
37052;DHT22;22964;52.272;13.356;2023-09-12T00:09:24;22.00;49.70
37052;DHT22;22964;52.272;13.356;2023-09-12T00:11:50;22.00;49.80
37052;DHT22;22964;52.272;13.356;2023-09-12T00:14:16;22.00;49.90
37052;DHT22;22964;52.272;13.356;2023-09-12T00:16:42;21.90;49.90
37052;DHT22;22964;52.272;13.356;2023-09-12T00:19:07;21.90;50.00
37052;DHT22;22964;52.272;13.356;2023-09-12T00:21:33;21.90;50.00
37052;DHT22;22964;52.272;13.356;2023-09-12T00:23:59;21.80;50.00
37052;DHT22;22964;52.272;13.356;2023-09-12T00:26:24;21.80;50.10
37052;DHT22;22964;52.272;13.356;2023-09-12T00:28:51;21.80;50.30
37052;DHT22;22964;52.272;13.356;2023-09-12T00:31:16;21.70;50.50
37052;DHT22;22964;52.272;13.356;2023-09-12T00:33:42;21.70;50.70
37052;DHT22;22964;52.272;13.356;2023-09-12T00:36:08;21.60;50.70
37052;DHT22;22964;52.272;13.356;2023-09-12T00:38:33;21.60;50.70
37052;DHT22;22964;52.272;13.356;2023-09-12T00:40:59;21.60;50.80
37052;DHT22;22964;52.272;13.356;2023-09-12T00:43:25;21.60;50.90
37052;DHT22;22964;52.272;13.356;2023-09-12T00:45:50;21.50;50.90
37052;DHT22;22964;52.272;13.356;2023-09-12T00:48:17;21.50;51.10
37052;DHT22;22964;52.272;13.356;2023-09-12T00:50:43;21.50;51.20
37052;DHT22;22964;52.272;13.356;2023-09-12T00:53:10;21.40;51.20
37052;DHT22;22964;52.272;13.356;2023-09-12T00:55:37;21.50;51.40
37052;DHT22;22964;52.272;13.356;2023-09-12T00:58:04;21.40;51.30
37052;DHT22;22964;52.272;13.356;2023-09-12T01:00:30;21.50;51.40
37052;DHT22;22964;52.272;13.356;2023-09-12T01:02:57;21.40;51.40
37052;DHT22;22964;52.272;13.356;2023-09-12T01:05:23;21.40;51.50
37052;DHT22;22964;52.272;13.356;2023-09-12T01:07:49;21.40;51.50
37052;DHT22;22964;52.272;13.356;2023-09-12T01:10:15;21.40;51.60
37052;DHT22;22964;52.272;13.356;2023-09-12T01:12:41;21.30;51.60
37052;DHT22;22964;52.272;13.356;2023-09-12T01:15:07;21.30;51.70
37052;DHT22;22964;52.272;13.356;2023-09-12T01:17:42;21.30;51.70
37052;DHT22;22964;52.272;13.356;2023-09-12T01:20:14;21.30;51.80
37052;DHT22;22964;52.272;13.356;2023-09-12T01:25:47;21.20;52.50
37052;DHT22;22964;52.272;13.356;2023-09-12T01:28:24;21.20;52.60
37052;DHT22;22964;52.272;13.356;2023-09-12T01:30:53;21.20;52.20
37052;DHT22;22964;52.272;13.356;2023-09-12T01:33:19;21.20;52.20
37052;DHT22;22964;52.272;13.356;2023-09-12T01:35:45;21.10;52.20
37052;DHT22;22964;52.272;13.356;2023-09-12T01:38:13;21.10;52.40
37052;DHT22;22964;52.272;13.356;2023-09-12T01:40:45;21.10;52.50
37052;DHT22;22964;52.272;13.356;2023-09-12T01:43:15;21.00;52.90
37052;DHT22;22964;52.272;13.356;2023-09-12T01:45:42;21.00;52.80
37052;DHT22;22964;52.272;13.356;2023-09-12T01:48:08;21.00;52.80
37052;DHT22;22964;52.272;13.356;2023-09-12T01:50:35;21.00;52.70
37052;DHT22;22964;52.272;13.356;2023-09-12T01:53:01;21.00;52.80
37052;DHT22;22964;52.272;13.356;2023-09-12T01:55:28;21.00;52.80
37052;DHT22;22964;52.272;13.356;2023-09-12T01:57:54;21.00;52.80
37052;DHT22;22964;52.272;13.356;2023-09-12T02:00:22;21.00;52.80
37052;DHT22;22964;52.272;13.356;2023-09-12T02:02:49;20.90;52.90
37052;DHT22;22964;52.272;13.356;2023-09-12T02:05:17;20.90;52.90
37052;DHT22;22964;52.272;13.356;2023-09-12T02:07:45;21.00;53.10
37052;DHT22;22964;52.272;13.356;2023-09-12T02:10:11;20.90;52.90
37052;DHT22;22964;52.272;13.356;2023-09-12T02:12:37;20.90;52.90
37052;DHT22;22964;52.272;13.356;2023-09-12T02:15:04;20.90;52.90
37052;DHT22;22964;52.272;13.356;2023-09-12T02:17:30;20.90;53.00
37052;DHT22;22964;52.272;13.356;2023-09-12T02:19:56;20.90;52.90
37052;DHT22;22964;52.272;13.356;2023-09-12T02:22:21;20.80;52.90
37052;DHT22;22964;52.272;13.356;2023-09-12T02:24:47;20.80;53.00
37052;DHT22;22964;52.272;13.356;2023-09-12T02:27:14;20.80;53.00
37052;DHT22;22964;52.272;13.356;2023-09-12T02:29:41;20.80;53.30
37052;DHT22;22964;52.272;13.356;2023-09-12T02:32:07;20.70;53.30
37052;DHT22;22964;52.272;13.356;2023-09-12T02:34:33;20.70;53.30
37052;DHT22;22964;52.272;13.356;2023-09-12T02:37:00;20.70;53.30
37052;DHT22;22964;52.272;13.356;2023-09-12T02:39:25;20.70;53.50
37052;DHT22;22964;52.272;13.356;2023-09-12T02:41:51;20.60;53.50
37052;DHT22;22964;52.272;13.356;2023-09-12T02:44:17;20.60;53.50
37052;DHT22;22964;52.272;13.356;2023-09-12T02:46:42;20.60;53.50
37052;DHT22;22964;52.272;13.356;2023-09-12T02:49:08;20.60;53.60
37052;DHT22;22964;52.272;13.356;2023-09-12T02:51:36;20.60;53.70
37052;DHT22;22964;52.272;13.356;2023-09-12T02:54:03;20.50;53.60
37052;DHT22;22964;52.272;13.356;2023-09-12T02:56:29;20.50;53.70
37052;DHT22;22964;52.272;13.356;2023-09-12T02:58:56;20.50;53.90
37052;DHT22;22964;52.272;13.356;2023-09-12T03:01:22;20.50;53.80
37052;DHT22;22964;52.272;13.356;2023-09-12T03:03:50;20.50;53.80
37052;DHT22;22964;52.272;13.356;2023-09-12T03:06:16;20.40;53.80
37052;DHT22;22964;52.272;13.356;2023-09-12T03:08:44;20.40;53.80
37052;DHT22;22964;52.272;13.356;2023-09-12T03:11:10;20.40;54.00
37052;DHT22;22964;52.272;13.356;2023-09-12T03:13:40;20.40;54.00
37052;DHT22;22964;52.272;13.356;2023-09-12T03:16:14;20.30;54.50
37052;DHT22;22964;52.272;13.356;2023-09-12T03:18:40;20.30;54.70
37052;DHT22;22964;52.272;13.356;2023-09-12T03:21:06;20.20;54.30
37052;DHT22;22964;52.272;13.356;2023-09-12T03:23:32;20.20;54.20
37052;DHT22;22964;52.272;13.356;2023-09-12T03:26:05;20.20;54.30
37052;DHT22;22964;52.272;13.356;2023-09-12T03:28:32;20.20;54.80
37052;DHT22;22964;52.272;13.356;2023-09-12T03:31:09;20.10;54.40
37052;DHT22;22964;52.272;13.356;2023-09-12T03:33:38;20.10;55.00
37052;DHT22;22964;52.272;13.356;2023-09-12T03:36:05;20.10;54.50
37052;DHT22;22964;52.272;13.356;2023-09-12T03:38:32;20.10;54.70
37052;DHT22;22964;52.272;13.356;2023-09-12T03:40:58;20.10;54.70
37052;DHT22;22964;52.272;13.356;2023-09-12T03:43:23;20.10;54.80
37052;DHT22;22964;52.272;13.356;2023-09-12T03:45:49;20.00;54.80
37052;DHT22;22964;52.272;13.356;2023-09-12T03:48:15;20.00;54.80
37052;DHT22;22964;52.272;13.356;2023-09-12T03:50:41;20.00;54.80
37052;DHT22;22964;52.272;13.356;2023-09-12T03:53:07;20.00;54.90
37052;DHT22;22964;52.272;13.356;2023-09-12T03:55:32;20.00;54.90
37052;DHT22;22964;52.272;13.356;2023-09-12T03:57:58;20.00;54.90
37052;DHT22;22964;52.272;13.356;2023-09-12T04:00:24;20.00;55.00
37052;DHT22;22964;52.272;13.356;2023-09-12T04:02:50;20.00;55.10
37052;DHT22;22964;52.272;13.356;2023-09-12T04:05:16;20.00;55.20
37052;DHT22;22964;52.272;13.356;2023-09-12T04:07:42;19.90;55.10
37052;DHT22;22964;52.272;13.356;2023-09-12T04:10:08;19.90;55.20
37052;DHT22;22964;52.272;13.356;2023-09-12T04:12:33;19.90;55.30
37052;DHT22;22964;52.272;13.356;2023-09-12T04:14:59;19.90;55.30
37052;DHT22;22964;52.272;13.356;2023-09-12T04:17:25;19.80;55.40
37052;DHT22;22964;52.272;13.356;2023-09-12T04:19:50;19.90;55.60
37052;DHT22;22964;52.272;13.356;2023-09-12T04:22:16;19.80;55.60
37052;DHT22;22964;52.272;13.356;2023-09-12T04:24:42;19.80;55.70
37052;DHT22;22964;52.272;13.356;2023-09-12T04:27:08;19.90;55.80
37052;DHT22;22964;52.272;13.356;2023-09-12T04:29:34;19.80;55.80
37052;DHT22;22964;52.272;13.356;2023-09-12T04:32:03;19.80;56.00
37052;DHT22;22964;52.272;13.356;2023-09-12T04:34:30;19.80;56.80
37052;DHT22;22964;52.272;13.356;2023-09-12T04:36:56;19.80;56.20
37052;DHT22;22964;52.272;13.356;2023-09-12T04:39:22;19.80;56.30
37052;DHT22;22964;52.272;13.356;2023-09-12T04:41:48;19.90;56.40
37052;DHT22;22964;52.272;13.356;2023-09-12T04:44:14;19.90;56.40
37052;DHT22;22964;52.272;13.356;2023-09-12T04:46:40;19.90;56.50
37052;DHT22;22964;52.272;13.356;2023-09-12T04:49:06;19.90;56.60
37052;DHT22;22964;52.272;13.356;2023-09-12T04:51:32;20.00;56.70
37052;DHT22;22964;52.272;13.356;2023-09-12T04:53:57;20.00;56.80
37052;DHT22;22964;52.272;13.356;2023-09-12T04:56:23;20.00;56.80
37052;DHT22;22964;52.272;13.356;2023-09-12T04:58:52;20.00;56.80
37052;DHT22;22964;52.272;13.356;2023-09-12T05:01:17;20.10;56.70
37052;DHT22;22964;52.272;13.356;2023-09-12T05:03:44;20.10;56.80
37052;DHT22;22964;52.272;13.356;2023-09-12T05:06:10;20.10;56.80
37052;DHT22;22964;52.272;13.356;2023-09-12T05:08:36;20.20;56.80
37052;DHT22;22964;52.272;13.356;2023-09-12T05:11:02;20.10;56.80
37052;DHT22;22964;52.272;13.356;2023-09-12T05:13:29;20.20;56.90
37052;DHT22;22964;52.272;13.356;2023-09-12T05:15:55;20.20;56.80
37052;DHT22;22964;52.272;13.356;2023-09-12T05:18:22;20.30;56.80
37052;DHT22;22964;52.272;13.356;2023-09-12T05:20:49;20.30;56.80
37052;DHT22;22964;52.272;13.356;2023-09-12T05:23:14;20.30;56.80
37052;DHT22;22964;52.272;13.356;2023-09-12T05:25:40;20.40;56.80
37052;DHT22;22964;52.272;13.356;2023-09-12T05:28:06;20.40;57.50
37052;DHT22;22964;52.272;13.356;2023-09-12T05:30:32;20.50;56.90
37052;DHT22;22964;52.272;13.356;2023-09-12T05:32:58;20.50;56.90
37052;DHT22;22964;52.272;13.356;2023-09-12T05:35:24;20.50;57.00
37052;DHT22;22964;52.272;13.356;2023-09-12T05:37:51;20.60;57.10
37052;DHT22;22964;52.272;13.356;2023-09-12T05:40:18;20.60;57.10
37052;DHT22;22964;52.272;13.356;2023-09-12T05:42:44;20.70;57.10
37052;DHT22;22964;52.272;13.356;2023-09-12T05:45:10;20.80;57.30
37052;DHT22;22964;52.272;13.356;2023-09-12T05:47:36;20.90;57.30
37052;DHT22;22964;52.272;13.356;2023-09-12T05:50:02;20.90;57.20
37052;DHT22;22964;52.272;13.356;2023-09-12T05:52:31;21.00;57.20
37052;DHT22;22964;52.272;13.356;2023-09-12T05:54:57;21.10;57.20
37052;DHT22;22964;52.272;13.356;2023-09-12T05:57:22;21.20;57.10
37052;DHT22;22964;52.272;13.356;2023-09-12T05:59:50;21.30;57.10
37052;DHT22;22964;52.272;13.356;2023-09-12T06:02:15;21.30;57.00
37052;DHT22;22964;52.272;13.356;2023-09-12T06:04:43;21.40;56.90
37052;DHT22;22964;52.272;13.356;2023-09-12T06:07:09;21.50;57.00
37052;DHT22;22964;52.272;13.356;2023-09-12T06:09:36;21.60;57.00
37052;DHT22;22964;52.272;13.356;2023-09-12T06:12:02;21.60;57.00
37052;DHT22;22964;52.272;13.356;2023-09-12T06:14:28;21.70;57.00
37052;DHT22;22964;52.272;13.356;2023-09-12T06:16:53;21.80;56.90
37052;DHT22;22964;52.272;13.356;2023-09-12T06:19:19;21.90;56.90
37052;DHT22;22964;52.272;13.356;2023-09-12T06:21:45;21.90;56.90
37052;DHT22;22964;52.272;13.356;2023-09-12T06:24:20;22.00;56.80
37052;DHT22;22964;52.272;13.356;2023-09-12T06:26:49;22.10;57.20
37052;DHT22;22964;52.272;13.356;2023-09-12T06:29:15;22.10;56.80
37052;DHT22;22964;52.272;13.356;2023-09-12T06:31:41;22.30;56.90
37052;DHT22;22964;52.272;13.356;2023-09-12T06:34:07;22.30;56.90
37052;DHT22;22964;52.272;13.356;2023-09-12T06:36:33;22.40;57.10
37052;DHT22;22964;52.272;13.356;2023-09-12T06:39:00;22.40;57.40
37052;DHT22;22964;52.272;13.356;2023-09-12T06:41:27;22.50;57.70
37052;DHT22;22964;52.272;13.356;2023-09-12T06:43:53;22.60;57.70
37052;DHT22;22964;52.272;13.356;2023-09-12T06:46:22;22.70;57.60
37052;DHT22;22964;52.272;13.356;2023-09-12T06:48:48;22.70;57.30
37052;DHT22;22964;52.272;13.356;2023-09-12T06:51:16;22.80;57.20
37052;DHT22;22964;52.272;13.356;2023-09-12T06:53:42;22.90;57.00
37052;DHT22;22964;52.272;13.356;2023-09-12T06:56:08;23.00;56.70
37052;DHT22;22964;52.272;13.356;2023-09-12T06:58:34;23.10;56.70
37052;DHT22;22964;52.272;13.356;2023-09-12T07:01:05;23.20;56.70
37052;DHT22;22964;52.272;13.356;2023-09-12T07:03:35;23.20;56.70
37052;DHT22;22964;52.272;13.356;2023-09-12T07:06:02;23.40;56.70
37052;DHT22;22964;52.272;13.356;2023-09-12T07:08:30;23.50;56.40
37052;DHT22;22964;52.272;13.356;2023-09-12T07:10:56;23.60;56.30
37052;DHT22;22964;52.272;13.356;2023-09-12T07:13:23;23.70;56.10
37052;DHT22;22964;52.272;13.356;2023-09-12T07:15:50;23.70;56.10
37052;DHT22;22964;52.272;13.356;2023-09-12T07:18:17;23.80;56.10
37052;DHT22;22964;52.272;13.356;2023-09-12T07:20:43;24.00;56.10
37052;DHT22;22964;52.272;13.356;2023-09-12T07:23:08;24.10;56.10
37052;DHT22;22964;52.272;13.356;2023-09-12T07:25:41;24.20;56.00
37052;DHT22;22964;52.272;13.356;2023-09-12T07:28:10;24.40;55.80
37052;DHT22;22964;52.272;13.356;2023-09-12T07:30:36;24.60;55.70
37052;DHT22;22964;52.272;13.356;2023-09-12T07:33:03;24.80;55.60
37052;DHT22;22964;52.272;13.356;2023-09-12T07:35:30;25.00;55.40
37052;DHT22;22964;52.272;13.356;2023-09-12T07:37:57;25.20;55.30
37052;DHT22;22964;52.272;13.356;2023-09-12T07:40:22;25.30;55.00
37052;DHT22;22964;52.272;13.356;2023-09-12T07:42:48;25.60;55.00
37052;DHT22;22964;52.272;13.356;2023-09-12T07:45:14;25.80;54.80
37052;DHT22;22964;52.272;13.356;2023-09-12T07:47:40;26.00;54.60
37052;DHT22;22964;52.272;13.356;2023-09-12T07:50:06;26.20;54.40
37052;DHT22;22964;52.272;13.356;2023-09-12T07:52:32;26.40;54.10
37052;DHT22;22964;52.272;13.356;2023-09-12T07:55:00;26.60;53.90
37052;DHT22;22964;52.272;13.356;2023-09-12T07:57:26;26.80;53.50
37052;DHT22;22964;52.272;13.356;2023-09-12T07:59:52;27.00;53.60
37052;DHT22;22964;52.272;13.356;2023-09-12T08:02:17;27.20;53.40
37052;DHT22;22964;52.272;13.356;2023-09-12T08:04:43;27.40;53.00
37052;DHT22;22964;52.272;13.356;2023-09-12T08:07:09;27.60;52.70
37052;DHT22;22964;52.272;13.356;2023-09-12T08:09:49;27.80;52.50
37052;DHT22;22964;52.272;13.356;2023-09-12T08:12:16;28.00;51.70
37052;DHT22;22964;52.272;13.356;2023-09-12T08:14:42;28.20;52.10
37052;DHT22;22964;52.272;13.356;2023-09-12T08:17:09;28.40;51.90
37052;DHT22;22964;52.272;13.356;2023-09-12T08:19:35;28.60;51.40
37052;DHT22;22964;52.272;13.356;2023-09-12T08:22:00;28.80;51.30
37052;DHT22;22964;52.272;13.356;2023-09-12T08:24:26;29.00;51.10
37052;DHT22;22964;52.272;13.356;2023-09-12T08:26:52;29.20;50.90
37052;DHT22;22964;52.272;13.356;2023-09-12T08:29:18;29.30;50.60
37052;DHT22;22964;52.272;13.356;2023-09-12T08:31:43;29.50;50.20
37052;DHT22;22964;52.272;13.356;2023-09-12T08:34:13;29.70;50.00
37052;DHT22;22964;52.272;13.356;2023-09-12T08:36:39;29.90;49.90
37052;DHT22;22964;52.272;13.356;2023-09-12T08:39:05;30.00;49.40
37052;DHT22;22964;52.272;13.356;2023-09-12T08:41:34;30.20;49.30
37052;DHT22;22964;52.272;13.356;2023-09-12T08:44:01;30.40;49.00
37052;DHT22;22964;52.272;13.356;2023-09-12T08:46:27;30.60;48.80
37052;DHT22;22964;52.272;13.356;2023-09-12T08:48:55;30.80;48.80
37052;DHT22;22964;52.272;13.356;2023-09-12T08:51:24;30.90;48.10
37052;DHT22;22964;52.272;13.356;2023-09-12T08:53:51;31.10;47.50
37052;DHT22;22964;52.272;13.356;2023-09-12T08:56:18;31.30;47.80
37052;DHT22;22964;52.272;13.356;2023-09-12T08:58:44;31.50;47.40
37052;DHT22;22964;52.272;13.356;2023-09-12T09:01:13;31.60;48.10
37052;DHT22;22964;52.272;13.356;2023-09-12T09:03:42;31.80;47.00
37052;DHT22;22964;52.272;13.356;2023-09-12T09:06:11;31.90;46.50
37052;DHT22;22964;52.272;13.356;2023-09-12T09:08:39;32.10;46.10
37052;DHT22;22964;52.272;13.356;2023-09-12T09:11:05;32.20;46.30
37052;DHT22;22964;52.272;13.356;2023-09-12T09:13:32;32.40;46.00
37052;DHT22;22964;52.272;13.356;2023-09-12T09:16:17;32.60;45.90
37052;DHT22;22964;52.272;13.356;2023-09-12T09:19:04;32.60;44.80
37052;DHT22;22964;52.272;13.356;2023-09-12T09:21:35;32.80;44.80
37052;DHT22;22964;52.272;13.356;2023-09-12T09:24:10;33.00;45.40
37052;DHT22;22964;52.272;13.356;2023-09-12T09:26:43;33.10;44.30
37052;DHT22;22964;52.272;13.356;2023-09-12T09:29:10;33.30;44.30
37052;DHT22;22964;52.272;13.356;2023-09-12T09:31:40;33.40;44.70
37052;DHT22;22964;52.272;13.356;2023-09-12T09:34:11;33.50;44.30
37052;DHT22;22964;52.272;13.356;2023-09-12T09:36:41;33.60;43.50
37052;DHT22;22964;52.272;13.356;2023-09-12T09:39:08;33.80;43.60
37052;DHT22;22964;52.272;13.356;2023-09-12T09:41:34;33.90;43.70
37052;DHT22;22964;52.272;13.356;2023-09-12T09:44:00;33.90;43.30
37052;DHT22;22964;52.272;13.356;2023-09-12T09:46:25;33.90;42.90
37052;DHT22;22964;52.272;13.356;2023-09-12T09:48:52;34.00;42.80
37052;DHT22;22964;52.272;13.356;2023-09-12T09:51:19;34.00;42.50
37052;DHT22;22964;52.272;13.356;2023-09-12T09:53:45;34.00;42.30
37052;DHT22;22964;52.272;13.356;2023-09-12T09:56:12;34.00;42.40
37052;DHT22;22964;52.272;13.356;2023-09-12T09:58:48;34.00;42.10
37052;DHT22;22964;52.272;13.356;2023-09-12T10:01:17;33.90;42.00
37052;DHT22;22964;52.272;13.356;2023-09-12T10:03:46;33.90;42.20
37052;DHT22;22964;52.272;13.356;2023-09-12T10:06:13;33.90;42.40
37052;DHT22;22964;52.272;13.356;2023-09-12T10:08:40;33.90;42.60
37052;DHT22;22964;52.272;13.356;2023-09-12T10:11:08;33.90;42.40
37052;DHT22;22964;52.272;13.356;2023-09-12T10:13:35;33.90;42.40
37052;DHT22;22964;52.272;13.356;2023-09-12T10:16:03;33.90;42.30
37052;DHT22;22964;52.272;13.356;2023-09-12T10:18:35;33.90;42.40
37052;DHT22;22964;52.272;13.356;2023-09-12T10:21:11;33.90;42.30
37052;DHT22;22964;52.272;13.356;2023-09-12T10:23:44;33.90;42.20
37052;DHT22;22964;52.272;13.356;2023-09-12T10:26:10;33.90;42.40
37052;DHT22;22964;52.272;13.356;2023-09-12T10:28:41;33.90;43.50
37052;DHT22;22964;52.272;13.356;2023-09-12T10:31:08;34.00;42.70
37052;DHT22;22964;52.272;13.356;2023-09-12T10:33:36;34.10;42.60
37052;DHT22;22964;52.272;13.356;2023-09-12T10:36:03;34.10;42.50
37052;DHT22;22964;52.272;13.356;2023-09-12T10:38:32;34.20;42.30
37052;DHT22;22964;52.272;13.356;2023-09-12T10:41:00;34.30;42.50
37052;DHT22;22964;52.272;13.356;2023-09-12T10:43:26;34.30;42.60
37052;DHT22;22964;52.272;13.356;2023-09-12T10:45:53;34.50;42.60
37052;DHT22;22964;52.272;13.356;2023-09-12T10:48:20;34.60;42.40
37052;DHT22;22964;52.272;13.356;2023-09-12T10:50:46;34.70;42.40
37052;DHT22;22964;52.272;13.356;2023-09-12T10:53:13;34.90;41.70
37052;DHT22;22964;52.272;13.356;2023-09-12T10:55:41;35.00;41.60
37052;DHT22;22964;52.272;13.356;2023-09-12T10:58:09;35.10;41.30
37052;DHT22;22964;52.272;13.356;2023-09-12T11:00:36;35.20;41.20
37052;DHT22;22964;52.272;13.356;2023-09-12T11:05:53;35.40;40.00
37052;DHT22;22964;52.272;13.356;2023-09-12T11:08:19;35.50;40.40
37052;DHT22;22964;52.272;13.356;2023-09-12T11:10:45;35.60;40.40
37052;DHT22;22964;52.272;13.356;2023-09-12T11:13:38;35.70;40.60
37052;DHT22;22964;52.272;13.356;2023-09-12T11:16:10;35.90;39.40
37052;DHT22;22964;52.272;13.356;2023-09-12T11:21:48;36.20;38.90
37052;DHT22;22964;52.272;13.356;2023-09-12T11:24:15;36.30;39.10
37052;DHT22;22964;52.272;13.356;2023-09-12T11:29:43;36.50;38.20
37052;DHT22;22964;52.272;13.356;2023-09-12T11:32:09;36.60;37.90
37052;DHT22;22964;52.272;13.356;2023-09-12T11:34:43;36.70;38.60
37052;DHT22;22964;52.272;13.356;2023-09-12T11:37:10;36.80;37.60
37052;DHT22;22964;52.272;13.356;2023-09-12T11:39:37;36.90;38.00
37052;DHT22;22964;52.272;13.356;2023-09-12T11:42:05;36.90;37.70
37052;DHT22;22964;52.272;13.356;2023-09-12T11:44:36;37.00;37.50
37052;DHT22;22964;52.272;13.356;2023-09-12T11:47:02;37.00;37.40
37052;DHT22;22964;52.272;13.356;2023-09-12T11:49:40;37.10;37.10
37052;DHT22;22964;52.272;13.356;2023-09-12T11:52:10;37.20;36.90
37052;DHT22;22964;52.272;13.356;2023-09-12T11:54:38;37.20;36.80
37052;DHT22;22964;52.272;13.356;2023-09-12T11:57:04;37.30;38.30
37052;DHT22;22964;52.272;13.356;2023-09-12T11:59:30;37.30;37.20
37052;DHT22;22964;52.272;13.356;2023-09-12T12:01:55;37.30;36.90
37052;DHT22;22964;52.272;13.356;2023-09-12T12:04:23;37.50;37.20
37052;DHT22;22964;52.272;13.356;2023-09-12T12:06:51;37.50;36.60
37052;DHT22;22964;52.272;13.356;2023-09-12T12:09:18;37.50;36.20
37052;DHT22;22964;52.272;13.356;2023-09-12T12:11:45;37.60;36.20
37052;DHT22;22964;52.272;13.356;2023-09-12T12:14:16;37.70;36.10
37052;DHT22;22964;52.272;13.356;2023-09-12T12:16:43;37.70;35.70
37052;DHT22;22964;52.272;13.356;2023-09-12T12:19:09;37.70;35.70
37052;DHT22;22964;52.272;13.356;2023-09-12T12:21:38;37.80;35.40
37052;DHT22;22964;52.272;13.356;2023-09-12T12:24:04;37.70;35.00
37052;DHT22;22964;52.272;13.356;2023-09-12T12:26:30;37.70;35.00
37052;DHT22;22964;52.272;13.356;2023-09-12T12:28:56;37.60;35.10
37052;DHT22;22964;52.272;13.356;2023-09-12T12:31:23;37.50;35.30
37052;DHT22;22964;52.272;13.356;2023-09-12T12:33:53;37.40;35.40
37052;DHT22;22964;52.272;13.356;2023-09-12T12:36:18;37.40;35.10
37052;DHT22;22964;52.272;13.356;2023-09-12T12:38:47;37.30;35.30
37052;DHT22;22964;52.272;13.356;2023-09-12T12:41:31;37.30;35.40
37052;DHT22;22964;52.272;13.356;2023-09-12T12:43:58;37.30;35.10
37052;DHT22;22964;52.272;13.356;2023-09-12T12:46:27;37.30;35.40
37052;DHT22;22964;52.272;13.356;2023-09-12T12:48:54;37.30;35.50
37052;DHT22;22964;52.272;13.356;2023-09-12T12:51:22;37.30;35.40
37052;DHT22;22964;52.272;13.356;2023-09-12T12:53:50;37.30;35.20
37052;DHT22;22964;52.272;13.356;2023-09-12T12:56:18;37.30;35.30
37052;DHT22;22964;52.272;13.356;2023-09-12T12:58:52;37.30;35.30
37052;DHT22;22964;52.272;13.356;2023-09-12T13:01:19;37.30;35.00
37052;DHT22;22964;52.272;13.356;2023-09-12T13:03:46;37.30;35.30
37052;DHT22;22964;52.272;13.356;2023-09-12T13:06:12;37.30;35.10
37052;DHT22;22964;52.272;13.356;2023-09-12T13:08:43;37.40;35.00
37052;DHT22;22964;52.272;13.356;2023-09-12T13:11:10;37.40;34.90
37052;DHT22;22964;52.272;13.356;2023-09-12T13:13:37;37.40;35.00
37052;DHT22;22964;52.272;13.356;2023-09-12T13:16:08;37.40;35.10
37052;DHT22;22964;52.272;13.356;2023-09-12T13:18:38;37.40;34.90
37052;DHT22;22964;52.272;13.356;2023-09-12T13:21:04;37.50;35.20
37052;DHT22;22964;52.272;13.356;2023-09-12T13:23:30;37.50;34.80
37052;DHT22;22964;52.272;13.356;2023-09-12T13:25:57;37.60;34.60
37052;DHT22;22964;52.272;13.356;2023-09-12T13:28:23;37.60;34.60
37052;DHT22;22964;52.272;13.356;2023-09-12T13:30:52;37.60;34.60
37052;DHT22;22964;52.272;13.356;2023-09-12T13:33:18;37.60;34.30
37052;DHT22;22964;52.272;13.356;2023-09-12T13:35:44;37.70;34.40
37052;DHT22;22964;52.272;13.356;2023-09-12T13:38:10;37.70;34.50
37052;DHT22;22964;52.272;13.356;2023-09-12T13:40:39;37.70;34.20
37052;DHT22;22964;52.272;13.356;2023-09-12T13:43:06;37.80;34.10
37052;DHT22;22964;52.272;13.356;2023-09-12T13:45:32;37.80;33.90
37052;DHT22;22964;52.272;13.356;2023-09-12T13:47:59;37.90;33.70
37052;DHT22;22964;52.272;13.356;2023-09-12T13:50:25;37.90;33.50
37052;DHT22;22964;52.272;13.356;2023-09-12T13:52:53;38.00;33.40
37052;DHT22;22964;52.272;13.356;2023-09-12T13:55:19;38.00;33.20
37052;DHT22;22964;52.272;13.356;2023-09-12T13:57:44;38.00;32.90
37052;DHT22;22964;52.272;13.356;2023-09-12T14:00:10;38.10;32.90
37052;DHT22;22964;52.272;13.356;2023-09-12T14:02:36;38.10;32.80
37052;DHT22;22964;52.272;13.356;2023-09-12T14:05:02;38.10;32.50
37052;DHT22;22964;52.272;13.356;2023-09-12T14:07:28;38.10;32.60
37052;DHT22;22964;52.272;13.356;2023-09-12T14:09:53;38.10;32.40
37052;DHT22;22964;52.272;13.356;2023-09-12T14:12:24;38.10;32.50
37052;DHT22;22964;52.272;13.356;2023-09-12T14:14:53;38.00;32.20
37052;DHT22;22964;52.272;13.356;2023-09-12T14:17:18;38.00;32.20
37052;DHT22;22964;52.272;13.356;2023-09-12T14:19:44;37.90;32.20
37052;DHT22;22964;52.272;13.356;2023-09-12T14:22:10;37.90;32.20
37052;DHT22;22964;52.272;13.356;2023-09-12T14:24:35;37.80;32.20
37052;DHT22;22964;52.272;13.356;2023-09-12T14:27:01;37.70;32.00
37052;DHT22;22964;52.272;13.356;2023-09-12T14:29:27;37.60;31.80
37052;DHT22;22964;52.272;13.356;2023-09-12T14:31:55;37.60;32.00
37052;DHT22;22964;52.272;13.356;2023-09-12T14:34:27;37.40;32.40
37052;DHT22;22964;52.272;13.356;2023-09-12T14:36:56;37.20;32.60
37052;DHT22;22964;52.272;13.356;2023-09-12T14:39:23;37.10;32.90
37052;DHT22;22964;52.272;13.356;2023-09-12T14:41:48;37.00;32.80
37052;DHT22;22964;52.272;13.356;2023-09-12T14:44:18;37.00;32.90
37052;DHT22;22964;52.272;13.356;2023-09-12T14:46:44;36.90;32.80
37052;DHT22;22964;52.272;13.356;2023-09-12T14:49:10;36.80;33.00
37052;DHT22;22964;52.272;13.356;2023-09-12T14:51:36;36.70;33.20
37052;DHT22;22964;52.272;13.356;2023-09-12T14:54:05;36.80;33.20
37052;DHT22;22964;52.272;13.356;2023-09-12T14:56:32;36.80;32.90
37052;DHT22;22964;52.272;13.356;2023-09-12T14:58:57;36.70;32.70
37052;DHT22;22964;52.272;13.356;2023-09-12T15:01:23;36.70;33.00
37052;DHT22;22964;52.272;13.356;2023-09-12T15:03:50;36.70;32.80
37052;DHT22;22964;52.272;13.356;2023-09-12T15:06:16;36.70;32.80
37052;DHT22;22964;52.272;13.356;2023-09-12T15:08:42;36.60;32.90
37052;DHT22;22964;52.272;13.356;2023-09-12T15:11:08;36.60;33.00
37052;DHT22;22964;52.272;13.356;2023-09-12T15:13:34;36.60;33.10
37052;DHT22;22964;52.272;13.356;2023-09-12T15:16:00;36.60;33.60
37052;DHT22;22964;52.272;13.356;2023-09-12T15:18:26;36.50;33.90
37052;DHT22;22964;52.272;13.356;2023-09-12T15:20:53;36.40;33.90
37052;DHT22;22964;52.272;13.356;2023-09-12T15:23:19;36.30;34.10
37052;DHT22;22964;52.272;13.356;2023-09-12T15:25:46;36.10;34.20
37052;DHT22;22964;52.272;13.356;2023-09-12T15:28:12;36.00;34.50